Time;durP1;ratioP1;P1;durP2;ratioP2;P2;SDS_P1;SDS_P2;PMS_P1;PMS_P2;Temp;Humidity;BMP_temperature;BMP_pressure;BME280_temperature;BME280_humidity;BME280_pressure;Samples;Min_cycle;Max_cycle;Signal;HPM_P1;HPM_P2
2021/05/07 00:01:57;;;;;;;13.23;7.15;;;;;;;2.09;84.58;101077.25;5023034;28;20061;-77
2021/05/07 00:04:24;;;;;;;12.48;6.88;;;;;;;2.08;84.05;101080.75;5019694;28;20061;-77
2021/05/07 00:06:52;;;;;;;11.50;6.07;;;;;;;2.01;83.51;101076.31;5019795;28;20070;-77
2021/05/07 00:09:20;;;;;;;13.38;7.40;;;;;;;2.02;83.67;101080.72;5038716;28;20060;-77
2021/05/07 00:11:47;;;;;;;10.68;6.10;;;;;;;2.00;83.71;101085.97;5018163;28;20065;-77
2021/05/07 00:14:15;;;;;;;17.73;8.07;;;;;;;2.04;84.33;101086.84;5022520;28;20053;-77
2021/05/07 00:16:42;;;;;;;38.63;17.83;;;;;;;2.00;84.07;101085.09;5015014;28;20065;-77
2021/05/07 00:19:09;;;;;;;19.33;9.00;;;;;;;2.01;84.52;101089.47;5021332;28;20089;-77
2021/05/07 00:21:38;;;;;;;18.60;8.23;;;;;;;1.96;83.82;101086.81;5020085;28;20065;-77
2021/05/07 00:24:07;;;;;;;13.40;7.53;;;;;;;1.96;83.96;101081.56;5019673;28;20140;-70
2021/05/07 00:26:34;;;;;;;15.27;6.80;;;;;;;1.97;84.86;101085.94;5017983;28;20088;-70
2021/05/07 00:29:02;;;;;;;16.80;8.75;;;;;;;1.99;84.48;101080.69;5019644;28;20064;-70
2021/05/07 00:31:29;;;;;;;13.40;7.15;;;;;;;2.01;84.53;101086.84;5021316;28;20153;-70
2021/05/07 00:33:56;;;;;;;11.57;5.78;;;;;;;1.95;83.84;101085.03;5018182;28;20061;-70
2021/05/07 00:36:23;;;;;;;15.75;7.60;;;;;;;2.05;84.22;101081.59;5017085;28;20064;-70
2021/05/07 00:38:50;;;;;;;14.02;6.70;;;;;;;2.11;84.97;101080.78;5021338;28;20088;-70
2021/05/07 00:41:17;;;;;;;15.07;7.65;;;;;;;2.20;85.72;101077.34;5032644;28;20076;-70
2021/05/07 00:43:44;;;;;;;14.18;7.18;;;;;;;2.26;85.90;101072.09;5020799;28;20120;-70
2021/05/07 00:46:11;;;;;;;12.43;6.85;;;;;;;2.32;85.95;101085.28;5020303;28;20065;-70
2021/05/07 00:48:39;;;;;;;15.20;7.22;;;;;;;2.36;85.34;101083.56;5018933;28;20132;-70
2021/05/07 00:51:06;;;;;;;14.10;7.05;;;;;;;2.41;85.75;101089.72;5017489;28;20068;-70
2021/05/07 00:53:33;;;;;;;20.40;10.35;;;;;;;2.47;85.43;101091.50;5016230;28;20195;-70
2021/05/07 00:56:00;;;;;;;18.63;8.32;;;;;;;2.54;85.64;101099.47;5019023;28;20140;-70
2021/05/07 00:58:27;;;;;;;19.25;8.55;;;;;;;2.59;86.13;101092.47;5019796;28;20065;-70
2021/05/07 01:00:54;;;;;;;16.33;8.52;;;;;;;2.70;86.54;101099.53;5019955;28;20136;-70
2021/05/07 01:03:22;;;;;;;18.00;8.20;;;;;;;2.75;85.74;101096.03;5018596;28;20057;-71
2021/05/07 01:05:49;;;;;;;17.05;8.00;;;;;;;2.80;85.83;101096.06;5018486;28;20500;-70
2021/05/07 01:08:18;;;;;;;19.23;9.23;;;;;;;2.88;85.72;101103.97;5018343;28;20073;-70
2021/05/07 01:10:45;;;;;;;22.52;10.10;;;;;;;2.91;85.48;101101.38;5020608;28;20461;-78
2021/05/07 01:13:12;;;;;;;15.05;9.07;;;;;;;2.95;85.05;101097.88;5017258;28;20061;-77
2021/05/07 01:15:41;;;;;;;18.55;8.77;;;;;;;2.96;84.89;101082.06;5021990;28;20057;-76
2021/05/07 01:18:10;;;;;;;24.27;10.23;;;;;;;3.03;84.93;101087.34;5016567;28;20065;-77
2021/05/07 01:20:39;;;;;;;18.48;10.85;;;;;;;3.09;84.90;101082.09;5021839;28;20291;-78
2021/05/07 01:23:08;;;;;;;18.10;8.88;;;;;;;3.09;84.26;101090.00;5016342;28;20057;-77
2021/05/07 01:25:37;;;;;;;20.90;10.75;;;;;;;3.10;84.31;101090.03;5034760;28;20163;-77
2021/05/07 01:28:06;;;;;;;17.80;10.50;;;;;;;3.17;84.43;101077.72;5019357;28;20054;-77
2021/05/07 01:30:34;;;;;;;20.55;9.50;;;;;;;3.20;84.29;101076.84;5018894;28;20401;-77
2021/05/07 01:33:01;;;;;;;22.15;11.00;;;;;;;3.25;84.19;101077.72;5036744;28;20057;-78
2021/05/07 01:35:30;;;;;;;16.25;9.07;;;;;;;3.29;83.99;101071.59;5014757;28;20107;-77
2021/05/07 01:37:59;;;;;;;16.40;9.60;;;;;;;3.33;83.94;101068.06;5020424;28;20058;-77
2021/05/07 01:40:28;;;;;;;19.92;10.00;;;;;;;3.40;83.98;101069.84;5016515;28;20100;-77
2021/05/07 01:42:56;;;;;;;19.92;10.30;;;;;;;3.48;84.05;101069.84;5019930;28;20145;-78
2021/05/07 01:45:26;;;;;;;17.65;9.07;;;;;;;3.50;84.13;101070.72;5016734;28;20093;-78
2021/05/07 01:47:54;;;;;;;20.77;9.52;;;;;;;3.53;84.08;101071.63;5017982;28;20107;-77
2021/05/07 01:50:22;;;;;;;18.27;9.32;;;;;;;3.58;84.37;101073.41;5017652;28;20152;-78
2021/05/07 01:52:50;;;;;;;20.02;9.90;;;;;;;3.61;84.49;101066.34;5017592;28;20099;-77
2021/05/07 01:55:20;;;;;;;18.90;10.57;;;;;;;3.63;85.28;101064.59;5034692;28;20061;-78
2021/05/07 01:57:47;;;;;;;17.60;10.23;;;;;;;3.66;85.77;101071.59;5016437;28;20069;-77
2021/05/07 02:00:17;;;;;;;21.90;10.10;;;;;;;3.67;86.13;101071.63;5015675;28;20057;-78
2021/05/07 02:02:44;;;;;;;19.98;10.20;;;;;;;3.72;86.08;101066.34;5018251;28;20144;-77
2021/05/07 02:05:12;;;;;;;20.02;10.10;;;;;;;3.76;86.35;101064.56;5018211;28;20062;-70
2021/05/07 02:07:39;;;;;;;17.75;9.88;;;;;;;3.81;87.06;101062.81;5019667;28;20085;-77
2021/05/07 02:10:08;;;;;;;22.33;11.93;;;;;;;3.76;86.69;101076.00;5015241;28;21112;-79
2021/05/07 02:12:36;;;;;;;18.40;10.55;;;;;;;3.79;86.78;101078.66;5021927;28;20064;-71
2021/05/07 02:15:05;;;;;;;19.77;9.07;;;;;;;3.84;85.15;101087.44;5018082;28;20115;-71
2021/05/07 02:17:32;;;;;;;14.35;8.13;;;;;;;3.85;84.79;101089.22;5017547;28;20155;-70
2021/05/07 02:19:59;;;;;;;13.43;6.75;;;;;;;3.86;85.02;101108.56;5019377;28;20072;-77
2021/05/07 02:22:26;;;;;;;7.93;3.88;;;;;;;3.66;83.18;101119.13;5016332;28;20065;-76
2021/05/07 02:24:53;;;;;;;9.32;4.10;;;;;;;3.52;83.01;101143.75;5022029;28;20492;-75
2021/05/07 02:27:20;;;;;;;9.07;3.72;;;;;;;3.41;83.46;101168.34;5014330;28;20148;-76
2021/05/07 02:29:48;;;;;;;8.40;3.40;;;;;;;3.09;82.96;101187.56;5021539;28;20092;-75
2021/05/07 02:32:15;;;;;;;6.25;3.22;;;;;;;2.92;83.27;101180.47;5013594;28;20085;-76
2021/05/07 02:34:43;;;;;;;7.32;3.03;;;;;;;2.85;84.47;101181.31;5020486;28;20053;-76
2021/05/07 02:37:10;;;;;;;8.25;3.78;;;;;;;2.87;85.35;101173.41;5016668;28;20069;-75
2021/05/07 02:39:37;;;;;;;7.88;3.72;;;;;;;2.79;85.92;101176.91;5018892;28;20061;-76
2021/05/07 02:42:04;;;;;;;6.28;3.47;;;;;;;2.73;86.04;101175.97;5022043;28;20116;-76
2021/05/07 02:44:31;;;;;;;9.23;3.35;;;;;;;2.79;86.06;101178.63;5017952;28;20144;-76
2021/05/07 02:47:03;;;;;;;7.95;3.80;;;;;;;2.57;86.13;101181.16;5022952;28;20164;-76
2021/05/07 02:49:31;;;;;;;6.70;3.30;;;;;;;2.49;86.52;101176.72;5021065;28;20065;-76
2021/05/07 02:51:58;;;;;;;6.53;3.53;;;;;;;2.52;87.29;101182.88;5022842;28;20057;-76
2021/05/07 02:54:25;;;;;;;7.05;3.72;;;;;;;2.41;87.30;101193.31;5020439;28;20556;-76
2021/05/07 02:56:52;;;;;;;8.20;3.75;;;;;;;2.39;87.77;101191.56;5022698;28;20111;-76
2021/05/07 02:59:19;;;;;;;9.13;3.92;;;;;;;2.43;87.77;101188.97;5016749;28;20336;-77
2021/05/07 03:01:46;;;;;;;8.05;4.07;;;;;;;2.28;87.66;101188.84;5021602;28;20062;-70
2021/05/07 03:04:13;;;;;;;7.18;4.20;;;;;;;2.26;87.81;101194.97;5019590;28;20156;-70
2021/05/07 03:06:41;;;;;;;7.97;3.90;;;;;;;2.27;88.05;101199.38;5020289;28;20062;-70
2021/05/07 03:09:08;;;;;;;5.60;3.70;;;;;;;2.16;88.16;101202.81;5022110;28;20069;-70
2021/05/07 03:11:35;;;;;;;10.00;4.25;;;;;;;2.09;88.06;101210.63;5020787;28;20069;-70
2021/05/07 03:14:01;;;;;;;7.78;3.65;;;;;;;2.06;88.55;101206.25;5020212;28;20060;-69
2021/05/07 03:16:28;;;;;;;8.15;4.28;;;;;;;2.00;88.80;101221.97;5021392;28;20071;-70
2021/05/07 03:18:55;;;;;;;8.52;3.90;;;;;;;2.03;88.54;101211.47;5018869;28;20507;-69
2021/05/07 03:21:23;;;;;;;7.10;3.50;;;;;;;1.99;88.53;101229.00;5031848;28;20330;-69
2021/05/07 03:23:50;;;;;;;9.18;4.28;;;;;;;1.98;88.43;101223.72;5018826;28;20072;-69
2021/05/07 03:26:17;;;;;;;7.00;3.85;;;;;;;1.92;88.96;101223.63;5025760;28;20065;-69
2021/05/07 03:28:49;;;;;;;8.68;3.90;;;;;;;1.97;88.76;101227.19;5016958;28;20598;-69
2021/05/07 03:31:16;;;;;;;8.15;3.83;;;;;;;1.88;88.03;101224.50;5038549;28;20075;-69
2021/05/07 03:33:44;;;;;;;7.32;3.70;;;;;;;1.80;89.70;101229.66;5018960;28;20069;-69
2021/05/07 03:36:11;;;;;;;7.97;3.75;;;;;;;1.81;89.79;101234.94;5021588;28;20057;-69
2021/05/07 03:38:39;;;;;;;6.45;3.53;;;;;;;1.82;89.75;101239.34;5020239;28;20063;-69
2021/05/07 03:41:06;;;;;;;6.47;3.35;;;;;;;1.82;89.51;101233.19;5016755;28;20057;-70
2021/05/07 03:43:34;;;;;;;8.40;3.72;;;;;;;1.71;89.77;101225.19;5022897;28;20404;-70
2021/05/07 03:46:01;;;;;;;7.70;4.00;;;;;;;1.77;89.45;101227.00;5015485;28;20437;-70
2021/05/07 03:48:28;;;;;;;7.57;4.32;;;;;;;1.76;90.30;101227.88;5022551;28;20072;-70
2021/05/07 03:50:57;;;;;;;9.48;3.58;;;;;;;1.75;90.05;101231.38;5016173;28;20139;-70
2021/05/07 03:53:24;;;;;;;8.38;4.05;;;;;;;1.76;90.19;101238.41;5021274;28;20065;-70
2021/05/07 03:55:55;;;;;;;7.38;3.95;;;;;;;1.76;89.89;101233.16;5018963;28;20061;-70
2021/05/07 03:58:22;;;;;;;7.53;4.13;;;;;;;1.57;89.18;101230.31;5021697;28;20308;-77
2021/05/07 04:00:49;;;;;;;7.40;3.45;;;;;;;1.61;89.80;101247.00;5018478;28;20146;-76
2021/05/07 04:03:16;;;;;;;7.82;4.22;;;;;;;1.60;89.99;101256.66;5020745;28;20064;-76
2021/05/07 04:05:46;;;;;;;8.00;3.65;;;;;;;1.68;90.26;101257.59;5016583;28;20655;-76
2021/05/07 04:08:14;;;;;;;8.38;3.22;;;;;;;1.67;89.20;101271.63;5034411;28;20516;-76
2021/05/07 04:10:42;;;;;;;7.75;3.38;;;;;;;1.64;89.04;101274.22;5016043;28;20073;-77
2021/05/07 04:15:56;;;;;;;7.65;3.72;;;;;;;1.56;88.61;101288.16;5035667;28;20061;-78
2021/05/07 04:18:23;;;;;;;7.45;4.30;;;;;;;1.53;89.38;101296.00;5034800;28;20069;-77
2021/05/07 04:20:50;;;;;;;7.78;3.97;;;;;;;1.48;89.87;101303.84;5016572;28;20140;-71
2021/05/07 04:23:18;;;;;;;8.50;4.43;;;;;;;1.43;89.41;101314.31;5020852;28;20053;-71
2021/05/07 04:25:45;;;;;;;8.80;4.40;;;;;;;1.46;90.25;101317.00;5019995;28;20049;-71
2021/05/07 04:28:13;;;;;;;9.27;4.68;;;;;;;1.53;90.26;101330.19;5018546;28;20341;-71
2021/05/07 04:30:40;;;;;;;8.38;4.28;;;;;;;1.50;89.79;101336.31;5034717;28;20064;-71
2021/05/07 04:33:07;;;;;;;6.13;3.45;;;;;;;1.57;89.54;101335.53;5034550;28;20057;-71
2021/05/07 04:35:34;;;;;;;9.50;4.78;;;;;;;1.58;89.96;101339.03;5034539;28;20088;-77
2021/05/07 04:38:03;;;;;;;7.97;4.35;;;;;;;1.60;90.40;101345.19;5020532;28;20440;-77
2021/05/07 04:40:30;;;;;;;10.63;5.35;;;;;;;1.53;91.04;101348.63;5023069;28;20065;-77
2021/05/07 04:42:59;;;;;;;9.43;4.78;;;;;;;1.56;90.79;101346.91;5017565;28;20167;-78
2021/05/07 04:45:28;;;;;;;9.38;4.68;;;;;;;1.55;90.34;101352.16;5023374;28;20057;-78
2021/05/07 04:47:55;;;;;;;8.18;4.40;;;;;;;1.46;90.55;101355.53;5018163;28;20061;-78
2021/05/07 04:50:22;;;;;;;7.80;4.45;;;;;;;1.54;91.03;101376.69;5021115;28;20093;-78
2021/05/07 04:52:49;;;;;;;10.30;4.90;;;;;;;1.58;91.25;101371.47;5035194;28;20057;-77
2021/05/07 04:55:16;;;;;;;9.52;4.57;;;;;;;1.72;91.13;101370.78;5023164;28;20061;-78
2021/05/07 04:57:44;;;;;;;9.82;4.82;;;;;;;1.81;91.77;101370.91;5020574;28;20064;-78
2021/05/07 05:00:11;;;;;;;10.68;5.55;;;;;;;1.89;91.65;101377.16;5020706;28;20127;-78
2021/05/07 05:02:39;;;;;;;10.57;4.57;;;;;;;1.91;91.23;101371.88;5019265;28;20149;-78
2021/05/07 05:05:07;;;;;;;11.82;5.05;;;;;;;1.94;91.05;101391.25;5017312;28;20076;-78
2021/05/07 05:07:35;;;;;;;8.95;5.07;;;;;;;1.99;91.43;101393.94;5023753;28;20085;-78
2021/05/07 05:10:03;;;;;;;12.18;5.72;;;;;;;2.08;91.93;101396.69;5019433;28;20569;-78
2021/05/07 05:12:29;;;;;;;11.43;6.18;;;;;;;2.12;91.68;101393.22;5022417;28;20392;-77
2021/05/07 05:14:57;;;;;;;10.32;5.20;;;;;;;2.18;91.35;101398.56;5019431;28;20053;-73
2021/05/07 05:17:24;;;;;;;12.52;6.43;;;;;;;2.27;90.71;101407.44;5032682;28;20215;-74
2021/05/07 05:19:51;;;;;;;12.10;6.28;;;;;;;2.30;90.87;101410.97;5016334;28;20062;-71
2021/05/07 05:22:18;;;;;;;11.85;5.70;;;;;;;2.32;90.39;101414.50;5016909;28;20076;-74
2021/05/07 05:24:46;;;;;;;12.68;6.13;;;;;;;2.35;90.50;101417.19;5018267;28;20057;-77
2021/05/07 05:27:13;;;;;;;9.98;5.30;;;;;;;2.45;90.89;101412.00;5032624;28;20061;-76
2021/05/07 05:29:40;;;;;;;11.38;5.97;;;;;;;2.48;91.09;101422.56;5015899;28;20115;-76
2021/05/07 05:32:07;;;;;;;11.75;5.03;;;;;;;2.68;90.13;101426.28;5020037;28;20083;-77
2021/05/07 05:34:34;;;;;;;10.05;5.95;;;;;;;2.91;90.30;101426.53;5029688;28;20061;-77
2021/05/07 05:37:03;;;;;;;13.57;5.93;;;;;;;2.95;89.09;101436.22;5035278;28;20072;-78
2021/05/07 05:39:30;;;;;;;11.13;5.88;;;;;;;2.77;89.38;101438.66;5031575;28;20459;-78
2021/05/07 05:41:58;;;;;;;11.70;6.50;;;;;;;2.72;89.04;101443.00;5022674;28;20057;-77
2021/05/07 05:44:25;;;;;;;14.38;7.80;;;;;;;2.67;89.25;101442.09;5033737;28;20064;-73
2021/05/07 05:46:52;;;;;;;11.40;6.72;;;;;;;2.69;89.41;101440.34;5015102;28;20133;-73
2021/05/07 05:49:20;;;;;;;13.88;7.63;;;;;;;2.85;89.03;101455.44;5013103;28;20409;-73
2021/05/07 05:51:47;;;;;;;11.77;7.40;;;;;;;3.28;86.94;101453.16;5013654;28;20432;-73
2021/05/07 05:54:14;;;;;;;14.13;7.15;;;;;;;3.54;87.79;101456.00;5017020;28;20071;-73
2021/05/07 05:56:42;;;;;;;12.38;7.13;;;;;;;3.89;85.78;101452.69;5012144;28;20057;-73
2021/05/07 05:59:09;;;;;;;11.35;6.00;;;;;;;4.07;83.42;101453.66;5019204;28;20200;-73
2021/05/07 06:01:36;;;;;;;10.70;5.70;;;;;;;4.39;84.40;101452.91;5013168;28;20306;-73
2021/05/07 06:04:03;;;;;;;13.43;6.80;;;;;;;4.61;83.71;101457.34;5016973;28;20057;-73
2021/05/07 06:06:30;;;;;;;11.13;5.70;;;;;;;4.85;81.68;101460.94;5013251;28;20088;-73
2021/05/07 06:08:57;;;;;;;13.25;7.13;;;;;;;5.26;82.32;101462.75;5017033;28;20140;-73
2021/05/07 06:11:25;;;;;;;13.45;6.20;;;;;;;5.33;79.81;101466.25;5015528;28;20084;-73
2021/05/07 06:13:52;;;;;;;11.80;6.47;;;;;;;5.59;81.35;101461.81;5030900;28;20089;-74
2021/05/07 06:16:20;;;;;;;14.65;7.80;;;;;;;5.72;80.66;101467.09;5019036;28;20061;-74
2021/05/07 06:18:47;;;;;;;17.98;9.85;;;;;;;5.86;80.09;101470.59;5032271;28;20080;-73
2021/05/07 06:21:14;;;;;;;16.63;8.68;;;;;;;6.23;78.97;101462.56;5019777;28;20092;-79
2021/05/07 06:23:41;;;;;;;15.82;9.55;;;;;;;6.19;78.09;101468.75;5020360;28;20188;-77
2021/05/07 06:26:08;;;;;;;17.58;8.93;;;;;;;6.73;77.92;101466.72;5019450;28;20423;-77
2021/05/07 06:28:35;;;;;;;16.25;8.75;;;;;;;7.02;76.98;101475.38;5019056;28;20091;-77
2021/05/07 06:31:02;;;;;;;13.93;8.48;;;;;;;7.37;76.41;101472.44;5019388;28;20140;-78
2021/05/07 06:33:29;;;;;;;13.88;7.90;;;;;;;7.31;74.47;101468.97;5020663;28;20068;-78
2021/05/07 06:35:56;;;;;;;15.50;8.50;;;;;;;7.09;75.06;101477.97;5017145;28;20065;-75
2021/05/07 06:38:23;;;;;;;14.65;8.07;;;;;;;7.77;75.92;101473.84;5018076;28;20060;-74
2021/05/07 06:40:50;;;;;;;18.92;8.48;;;;;;;8.05;75.18;101474.41;5038523;28;20128;-74
2021/05/07 06:43:17;;;;;;;14.75;9.32;;;;;;;7.87;74.96;101475.50;5018708;28;20969;-74
2021/05/07 06:45:45;;;;;;;14.77;8.13;;;;;;;7.93;73.56;101487.84;5021060;28;20060;-75
2021/05/07 06:48:11;;;;;;;15.52;8.25;;;;;;;8.44;73.25;101489.94;5017919;28;20084;-74
2021/05/07 06:50:38;;;;;;;14.57;9.27;;;;;;;9.19;72.96;101487.97;5022918;28;20065;-75
2021/05/07 06:53:05;;;;;;;15.30;8.52;;;;;;;9.35;71.98;101487.69;5015218;28;20072;-76
2021/05/07 06:55:32;;;;;;;15.82;8.10;;;;;;;9.73;71.57;101493.25;5017724;28;20148;-78
2021/05/07 06:57:59;;;;;;;14.48;8.40;;;;;;;9.56;69.97;101498.88;5018265;28;20152;-78
2021/05/07 07:00:25;;;;;;;13.95;7.93;;;;;;;9.43;68.34;101500.00;5019631;28;20061;-78
2021/05/07 07:02:53;;;;;;;15.27;8.30;;;;;;;9.93;68.37;101498.22;5018577;28;20057;-79
2021/05/07 07:05:20;;;;;;;14.60;8.80;;;;;;;10.02;69.88;101505.16;5034766;28;20088;-79
2021/05/07 07:07:47;;;;;;;13.70;8.20;;;;;;;10.35;68.20;101497.44;5020848;28;20068;-74
2021/05/07 07:10:20;;;;;;;15.90;9.27;;;;;;;10.75;66.69;101508.13;5017757;28;20382;-74
2021/05/07 07:12:47;;;;;;;14.82;8.18;;;;;;;10.78;64.85;101501.88;5017993;28;20147;-74
2021/05/07 07:15:15;;;;;;;15.65;7.43;;;;;;;10.07;63.56;101513.97;5029498;28;20068;-74
2021/05/07 07:17:42;;;;;;;15.15;7.25;;;;;;;9.99;65.74;101523.88;5020878;28;20057;-74
2021/05/07 07:20:11;;;;;;;13.18;7.45;;;;;;;9.71;67.46;101533.25;5016346;28;20606;-80
2021/05/07 07:22:39;;;;;;;10.80;6.10;;;;;;;9.33;63.91;101533.88;5019815;28;20176;-74
2021/05/07 07:25:10;;;;;;;9.23;5.22;;;;;;;8.76;64.21;101540.06;5014990;28;20071;-74
2021/05/07 07:27:40;;;;;;;8.25;4.45;;;;;;;8.12;66.48;101546.97;5016586;28;20127;-74
2021/05/07 07:30:08;;;;;;;10.45;4.93;;;;;;;7.79;65.67;101549.09;5014594;28;20057;-80
2021/05/07 07:32:35;;;;;;;11.88;4.90;;;;;;;7.88;65.83;101548.13;5034937;28;20053;-80
2021/05/07 07:35:03;;;;;;;13.40;5.47;;;;;;;8.79;63.15;101550.66;5014432;28;20050;-74
2021/05/07 07:37:31;;;;;;;10.65;4.90;;;;;;;8.13;64.35;101552.28;5015835;28;20431;-73
2021/05/07 07:39:58;;;;;;;12.55;5.82;;;;;;;8.72;64.79;101547.19;5018012;28;20065;-73
2021/05/07 07:42:25;;;;;;;9.95;5.75;;;;;;;9.01;63.25;101559.25;5020086;28;20437;-73
2021/05/07 07:44:54;;;;;;;11.40;4.82;;;;;;;9.38;61.05;101568.44;5019089;28;20068;-73
2021/05/07 07:47:22;;;;;;;9.98;5.15;;;;;;;9.75;59.67;101562.53;5018987;28;20061;-72
2021/05/07 07:49:50;;;;;;;9.10;4.60;;;;;;;9.24;61.25;101572.19;5033988;28;20068;-72
2021/05/07 07:52:17;;;;;;;8.60;4.30;;;;;;;8.95;61.47;101576.16;5015525;28;20088;-74
2021/05/07 07:54:45;;;;;;;10.02;5.15;;;;;;;9.38;59.87;101576.44;5017387;28;20471;-72
2021/05/07 07:57:12;;;;;;;9.77;4.75;;;;;;;9.53;58.84;101560.22;5015986;28;20070;-72
2021/05/07 07:59:39;;;;;;;10.57;5.30;;;;;;;9.55;57.95;101579.72;5015789;28;20328;-72
2021/05/07 08:02:07;;;;;;;6.60;4.10;;;;;;;9.31;59.13;101589.88;5018240;28;20096;-78
2021/05/07 08:04:35;;;;;;;11.05;5.13;;;;;;;9.20;60.15;101583.81;5034268;28;20065;-72
2021/05/07 08:07:05;;;;;;;10.50;5.43;;;;;;;9.73;59.80;101591.88;5016482;28;20072;-76
2021/05/07 08:09:36;;;;;;;9.02;5.22;;;;;;;9.39;59.18;101594.19;5014372;28;20316;-71
2021/05/07 08:12:11;;;;;;;12.18;5.20;;;;;;;9.37;58.44;101602.22;5031158;28;20183;-72
2021/05/07 08:14:38;;;;;;;12.13;5.57;;;;;;;9.20;58.68;101598.91;5021442;28;20089;-72
2021/05/07 08:17:05;;;;;;;10.15;6.30;;;;;;;8.82;56.64;101595.88;5014883;28;20091;-77
2021/05/07 08:19:32;;;;;;;13.75;6.03;;;;;;;9.90;55.79;101611.13;5018977;28;20065;-78
2021/05/07 08:21:59;;;;;;;10.02;5.90;;;;;;;10.20;56.55;101610.59;5015861;28;20935;-78
2021/05/07 08:24:26;;;;;;;11.05;5.55;;;;;;;11.20;55.82;101606.84;5020816;28;20057;-78
2021/05/07 08:26:54;;;;;;;12.55;5.75;;;;;;;11.99;54.68;101601.44;5018397;28;20061;-78
2021/05/07 08:29:22;;;;;;;13.57;5.55;;;;;;;11.23;52.22;101607.69;5021044;28;20097;-75
2021/05/07 08:31:49;;;;;;;10.45;5.35;;;;;;;9.78;56.00;101626.44;5020025;28;20071;-76
2021/05/07 08:34:16;;;;;;;10.45;5.85;;;;;;;9.23;57.46;101629.03;5018568;28;20096;-71
2021/05/07 08:36:43;;;;;;;12.35;5.40;;;;;;;10.30;54.05;101636.22;5020079;28;20061;-72
2021/05/07 08:39:10;;;;;;;12.27;5.35;;;;;;;10.44;52.64;101634.19;5017183;28;20341;-72
2021/05/07 08:41:37;;;;;;;11.15;5.90;;;;;;;11.39;53.16;101628.66;5017749;28;20053;-72
2021/05/07 08:44:05;;;;;;;14.10;6.05;;;;;;;11.36;51.41;101642.09;5018071;28;20057;-72
2021/05/07 08:46:34;;;;;;;9.75;5.57;;;;;;;11.45;50.18;101635.66;5020530;28;20059;-71
2021/05/07 08:49:02;;;;;;;9.63;5.10;;;;;;;11.65;50.87;101639.69;5019512;28;20053;-71
2021/05/07 08:51:29;;;;;;;8.88;4.60;;;;;;;11.03;53.06;101646.38;5017736;28;20064;-77
2021/05/07 08:53:57;;;;;;;13.30;6.05;;;;;;;12.01;50.20;101650.41;5030869;28;20652;-77
2021/05/07 08:56:33;;;;;;;10.88;5.45;;;;;;;11.13;53.24;101658.63;5017821;28;20064;-78
2021/05/07 08:59:00;;;;;;;9.48;5.78;;;;;;;10.46;54.01;101661.72;5016767;28;20107;-77
2021/05/07 09:01:42;;;;;;;12.65;5.60;;;;;;;10.91;54.20;101670.66;5034217;28;20087;-78
2021/05/07 09:04:10;;;;;;;11.32;5.70;;;;;;;9.86;53.10;101676.06;5033013;28;20479;-77
2021/05/07 09:06:44;;;;;;;13.98;5.85;;;;;;;10.13;54.66;101679.19;5017974;28;20067;-75
2021/05/07 09:09:21;;;;;;;11.20;6.00;;;;;;;11.37;52.28;101673.25;5018411;28;20132;-76
2021/05/07 09:11:49;;;;;;;9.00;5.68;;;;;;;10.65;53.50;101686.28;5018257;28;20061;-76
2021/05/07 09:14:17;;;;;;;9.82;5.65;;;;;;;11.07;52.14;101685.47;5015863;28;20053;-76
2021/05/07 09:16:54;;;;;;;10.20;5.72;;;;;;;12.53;48.43;101675.78;5019349;28;20059;-76
2021/05/07 09:19:25;;;;;;;11.20;5.28;;;;;;;12.71;48.98;101680.66;5016504;28;20101;-76
2021/05/07 09:21:53;;;;;;;9.07;5.43;;;;;;;11.98;48.08;101685.25;5021137;28;20136;-77
2021/05/07 09:24:30;;;;;;;11.98;6.07;;;;;;;11.38;51.14;101701.72;5031061;28;20295;-76
2021/05/07 09:26:56;;;;;;;10.48;5.72;;;;;;;10.56;52.31;101710.47;5020046;28;20237;-76
2021/05/07 09:29:26;;;;;;;8.27;5.45;;;;;;;10.32;50.22;101708.22;5018457;28;20075;-77
2021/05/07 09:31:54;;;;;;;10.75;4.78;;;;;;;11.18;51.73;101719.97;5018897;28;20061;-80
2021/05/07 09:34:23;;;;;;;10.48;4.88;;;;;;;11.43;47.33;101709.66;5017399;28;20061;-81
2021/05/07 09:36:53;;;;;;;8.18;5.07;;;;;;;11.79;47.19;101717.75;5014412;28;20471;-79
2021/05/07 09:39:23;;;;;;;8.23;3.80;;;;;;;10.70;44.61;101717.34;5017849;28;20072;-79
2021/05/07 09:41:52;;;;;;;10.05;4.45;;;;;;;10.26;47.51;101727.88;5013786;28;20636;-80
2021/05/07 09:44:22;;;;;;;10.35;5.20;;;;;;;11.07;47.86;101729.97;5033138;28;20061;-82
2021/05/07 09:46:50;;;;;;;9.15;5.03;;;;;;;11.90;47.15;101718.38;5014184;28;20161;-78
2021/05/07 09:49:26;;;;;;;11.45;6.50;;;;;;;10.63;49.45;101728.13;5015972;28;20129;-80
2021/05/07 09:51:55;;;;;;;10.43;5.28;;;;;;;10.54;49.16;101733.66;5011290;28;20107;-81
2021/05/07 09:54:22;;;;;;;11.02;5.03;;;;;;;10.84;47.26;101740.22;5017917;28;20336;-75
2021/05/07 09:56:50;;;;;;;9.10;4.93;;;;;;;11.56;46.78;101732.53;5014687;28;20344;-74
2021/05/07 09:59:18;;;;;;;10.52;4.18;;;;;;;12.55;43.78;101729.28;5015061;28;20428;-73
2021/05/07 10:01:46;;;;;;;7.50;3.60;;;;;;;12.65;42.12;101731.72;5025600;28;20617;-75
2021/05/07 10:04:15;;;;;;;8.30;3.60;;;;;;;13.43;40.89;101738.50;5013055;28;20068;-73
2021/05/07 10:06:43;;;;;;;9.40;4.10;;;;;;;13.07;43.36;101739.47;5011989;28;20499;-75
2021/05/07 10:09:20;;;;;;;9.80;4.30;;;;;;;13.27;43.08;101738.03;5016069;28;20426;-74
2021/05/07 10:11:49;;;;;;;9.15;5.00;;;;;;;12.43;43.72;101750.13;5014678;28;20504;-74
2021/05/07 10:14:18;;;;;;;8.20;4.43;;;;;;;12.49;43.19;101757.13;5030723;28;20065;-81
2021/05/07 10:16:46;;;;;;;8.25;4.30;;;;;;;12.97;42.76;101751.38;5015759;28;20471;-81
2021/05/07 10:19:14;;;;;;;9.55;4.82;;;;;;;11.77;44.18;101760.56;5019392;28;20065;-81
2021/05/07 10:21:43;;;;;;;9.10;4.65;;;;;;;11.73;43.52;101756.22;5018249;28;20133;-80
2021/05/07 10:24:12;;;;;;;9.95;4.72;;;;;;;13.10;43.97;101759.09;5029109;28;20103;-79
2021/05/07 10:26:41;;;;;;;11.82;5.88;;;;;;;13.02;44.84;101767.31;5019781;28;20062;-78
2021/05/07 10:29:18;;;;;;;12.85;6.85;;;;;;;12.66;44.36;101764.72;5015388;28;20156;-79
2021/05/07 10:31:51;;;;;;;12.43;6.22;;;;;;;13.07;44.26;101774.31;5033468;28;20516;-79
2021/05/07 10:34:21;;;;;;;10.38;4.93;;;;;;;11.72;44.77;101781.19;5016413;28;20057;-79
2021/05/07 10:37:10;;;;;;;9.75;5.15;;;;;;;11.96;46.22;101778.91;5029957;28;20057;-78
2021/05/07 10:39:51;;;;;;;10.15;5.22;;;;;;;13.76;44.29;101776.81;5017113;28;20141;-81
2021/05/07 10:42:18;;;;;;;10.95;5.95;;;;;;;13.89;41.84;101773.75;5019231;28;20336;-80
2021/05/07 10:44:45;;;;;;;12.63;7.20;;;;;;;14.38;42.60;101773.06;5019870;28;20053;-81
2021/05/07 10:47:11;;;;;;;11.32;5.72;;;;;;;13.95;41.64;101779.81;5037115;28;20058;-81
2021/05/07 10:49:40;;;;;;;11.23;6.03;;;;;;;13.27;45.49;101787.16;5018646;28;20406;-80
2021/05/07 10:52:10;;;;;;;8.93;5.32;;;;;;;13.53;45.92;101790.91;5020517;28;20395;-79
2021/05/07 10:54:39;;;;;;;10.52;5.47;;;;;;;13.94;44.03;101791.47;5017887;28;20512;-72
2021/05/07 10:57:18;;;;;;;12.65;6.78;;;;;;;13.34;43.83;101787.88;5034572;28;20134;-72
2021/05/07 10:59:53;;;;;;;13.77;6.20;;;;;;;13.04;44.30;101790.50;5018526;28;20436;-72
2021/05/07 11:02:20;;;;;;;10.73;5.80;;;;;;;13.27;43.99;101797.88;5022626;28;20170;-73
2021/05/07 11:04:48;;;;;;;11.20;5.28;;;;;;;13.69;43.76;101795.81;5019715;28;20460;-71
2021/05/07 11:07:26;;;;;;;9.60;5.97;;;;;;;13.06;45.50;101803.84;5021648;28;20168;-78
2021/05/07 11:10:00;;;;;;;13.27;6.30;;;;;;;12.20;47.47;101808.69;5021779;28;20184;-80
2021/05/07 11:12:27;;;;;;;12.55;6.53;;;;;;;12.04;48.30;101808.16;5036916;28;20064;-78
2021/05/07 11:14:55;;;;;;;12.20;6.20;;;;;;;11.77;49.52;101816.72;5017118;28;20053;-77
2021/05/07 11:17:22;;;;;;;12.70;6.65;;;;;;;13.19;48.43;101807.06;5038181;28;20053;-77
2021/05/07 11:19:50;;;;;;;12.90;6.63;;;;;;;13.56;47.16;101817.66;5017419;28;20318;-78
2021/05/07 11:22:25;;;;;;;11.13;6.45;;;;;;;12.83;47.87;101817.84;5018058;28;20211;-78
2021/05/07 11:24:53;;;;;;;15.85;6.68;;;;;;;12.97;48.74;101812.97;5015360;28;20139;-78
2021/05/07 11:27:22;;;;;;;11.20;7.13;;;;;;;13.47;47.32;101811.66;5033765;28;20064;-79
2021/05/07 11:29:52;;;;;;;11.48;5.97;;;;;;;13.22;47.50;101823.06;5032635;28;20088;-77
2021/05/07 11:32:21;;;;;;;12.63;6.95;;;;;;;13.06;48.80;101825.28;5019555;28;20073;-77